Time;durP1;ratioP1;P1;durP2;ratioP2;P2;SDS_P1;SDS_P2;PMS_P1;PMS_P2;Temp;Humidity;BMP_temperature;BMP_pressure;BME280_temperature;BME280_humidity;BME280_pressure;Samples;Min_cycle;Max_cycle;Signal;HPM_P1;HPM_P2
2022/01/29 00:34:12;;;;;;;36.35;11.98;;;7.00;99.90;;;;;;6278742;22;20027;-85
2022/01/29 00:41:44;;;;;;;27.23;10.00;;;6.40;99.90;;;;;;6099884;23;20018;-86
2022/01/29 00:45:24;;;;;;;35.53;12.25;;;6.90;99.90;;;;;;6077846;23;20331;-85
2022/01/29 01:17:37;;;;;;;38.38;13.65;;;6.30;99.90;;;;;;6162260;22;4008799;-84
2022/01/29 01:20:09;;;;;;;33.75;14.05;;;7.30;99.90;;;;;;6255300;22;20070;-84
2022/01/29 01:22:35;;;;;;;32.30;12.77;;;7.00;99.90;;;;;;6228735;22;20049;-85
2022/01/29 01:25:07;;;;;;;34.50;14.27;;;7.10;99.90;;;;;;6229016;22;20360;-85
2022/01/29 01:27:41;;;;;;;44.15;14.68;;;7.10;99.90;;;;;;6229242;22;20023;-85
2022/01/29 01:30:08;;;;;;;47.85;15.40;;;7.10;99.90;;;;;;6227870;22;20037;-85
2022/01/29 01:32:34;;;;;;;36.45;14.30;;;7.20;99.90;;;;;;6230170;22;20153;-83
2022/01/29 01:35:12;;;;;;;35.95;14.32;;;6.90;99.90;;;;;;6254229;22;20084;-85
2022/01/29 01:38:05;;;;;;;30.75;12.18;;;7.10;99.90;;;;;;6231621;22;20022;-85
2022/01/29 01:40:50;;;;;;;40.63;14.18;;;7.30;99.90;;;;;;6255074;22;20465;-85
2022/01/29 01:43:19;;;;;;;53.65;15.77;;;7.40;99.90;;;;;;6230049;22;20015;-86
2022/01/29 01:45:53;;;;;;;43.28;16.00;;;7.20;99.90;;;;;;6226827;22;20016;-86
2022/01/29 01:48:19;;;;;;;39.50;14.63;;;7.30;99.90;;;;;;6228220;22;20024;-85
2022/01/29 01:50:45;;;;;;;50.08;15.18;;;6.70;99.90;;;;;;6228316;22;20015;-85
2022/01/29 01:53:24;;;;;;;47.05;15.10;;;8.30;99.90;;;;;;6229598;22;20008;-85
2022/01/29 01:55:50;;;;;;;42.53;15.02;;;7.50;99.90;;;;;;6229027;22;20623;-85
2022/01/29 01:58:17;;;;;;;43.65;15.57;;;8.20;99.90;;;;;;6255245;22;20020;-85
2022/01/29 02:00:43;;;;;;;44.38;14.02;;;7.50;99.90;;;;;;6229271;22;20341;-84
2022/01/29 02:03:26;;;;;;;39.13;14.52;;;8.20;99.90;;;;;;6254823;22;20098;-84
2022/01/29 02:06:13;;;;;;;44.40;15.52;;;7.40;99.90;;;;;;6228013;22;20084;-86
2022/01/29 02:08:39;;;;;;;37.97;13.98;;;7.60;99.90;;;;;;6229976;22;20007;-85
2022/01/29 02:11:10;;;;;;;44.40;14.38;;;7.30;99.90;;;;;;6230478;22;20031;-85
2022/01/29 02:13:57;;;;;;;47.88;15.32;;;7.40;99.90;;;;;;6230119;22;20008;-85
2022/01/29 02:16:27;;;;;;;47.38;16.10;;;8.20;99.90;;;;;;6231197;22;20012;-84
2022/01/29 02:18:53;;;;;;;42.13;13.07;;;7.30;99.90;;;;;;6225234;22;20020;-85
2022/01/29 02:21:27;;;;;;;35.47;14.32;;;7.40;99.90;;;;;;6221997;22;20023;-85
2022/01/29 02:23:56;;;;;;;43.75;12.60;;;7.40;99.90;;;;;;6223041;22;20049;-84
2022/01/29 02:26:22;;;;;;;45.55;14.55;;;7.30;99.90;;;;;;6221859;22;20019;-85
2022/01/29 02:28:47;;;;;;;33.03;13.30;;;8.50;99.90;;;;;;6247601;22;20379;-85
2022/01/29 02:31:13;;;;;;;44.88;14.15;;;7.50;99.90;;;;;;6222197;22;20019;-85
2022/01/29 02:33:45;;;;;;;33.25;12.30;;;7.50;99.90;;;;;;6222954;22;20030;-84
2022/01/29 02:36:10;;;;;;;34.78;12.80;;;7.70;99.90;;;;;;6221237;22;20035;-86
2022/01/29 02:38:36;;;;;;;30.17;11.75;;;8.10;99.90;;;;;;6223009;22;20031;-86
2022/01/29 02:41:08;;;;;;;43.58;12.20;;;8.30;99.90;;;;;;6221581;22;20023;-85
2022/01/29 02:43:46;;;;;;;31.67;12.07;;;7.40;99.90;;;;;;6248213;22;20015;-85
2022/01/29 02:46:30;;;;;;;32.38;11.63;;;7.80;99.90;;;;;;6222263;22;20016;-85
2022/01/29 02:49:01;;;;;;;33.75;12.80;;;7.60;99.90;;;;;;6248724;22;20054;-86
2022/01/29 02:51:30;;;;;;;38.67;13.88;;;7.70;99.90;;;;;;6221900;22;20377;-85
2022/01/29 02:53:55;;;;;;;43.33;13.68;;;7.70;99.90;;;;;;6246463;22;20015;-85
2022/01/29 02:56:21;;;;;;;39.88;12.80;;;8.50;99.90;;;;;;6221547;22;20039;-85
2022/01/29 02:58:47;;;;;;;41.85;13.48;;;8.10;99.90;;;;;;6223213;22;20023;-84
2022/01/29 03:01:33;;;;;;;27.88;10.32;;;7.60;99.90;;;;;;6247686;22;20031;-84
2022/01/29 03:04:07;;;;;;;35.25;13.43;;;7.70;99.90;;;;;;6221140;22;20223;-85
2022/01/29 03:06:33;;;;;;;32.38;13.00;;;7.70;99.90;;;;;;6247196;22;20052;-84
2022/01/29 03:09:04;;;;;;;45.92;13.65;;;8.10;99.90;;;;;;6222371;22;20338;-84
2022/01/29 03:11:29;;;;;;;27.45;10.93;;;7.80;99.90;;;;;;6223204;22;20023;-84
2022/01/29 03:13:56;;;;;;;38.92;12.50;;;7.80;99.90;;;;;;6223343;22;20115;-84
2022/01/29 03:16:40;;;;;;;28.90;11.85;;;7.90;99.90;;;;;;6223431;22;20015;-84
2022/01/29 03:19:06;;;;;;;32.42;12.05;;;7.90;99.90;;;;;;6248584;22;20393;-85
2022/01/29 03:21:32;;;;;;;33.38;11.88;;;7.80;99.90;;;;;;6223223;22;20019;-85
2022/01/29 03:24:01;;;;;;;40.55;14.48;;;8.90;99.90;;;;;;6223622;22;20145;-85
2022/01/29 03:26:26;;;;;;;30.90;13.10;;;8.80;99.90;;;;;;6223450;22;20396;-85
2022/01/29 03:28:52;;;;;;;37.33;13.43;;;7.90;99.90;;;;;;6221941;22;20098;-84
2022/01/29 03:35:11;;;;;;;24.73;12.13;;;7.80;99.90;;;;;;6275375;22;20288;-85
2022/01/29 03:37:39;;;;;;;33.28;12.25;;;7.90;99.90;;;;;;6222067;22;20036;-83
2022/01/29 03:40:08;;;;;;;36.40;13.82;;;8.10;99.90;;;;;;6222432;22;20015;-85
2022/01/29 03:42:43;;;;;;;35.53;14.70;;;7.90;99.90;;;;;;6223155;22;20011;-85
2022/01/29 03:45:10;;;;;;;29.38;13.18;;;8.30;99.90;;;;;;6221023;22;20355;-84
2022/01/29 03:47:39;;;;;;;32.40;13.45;;;8.20;99.90;;;;;;6247838;22;20008;-84
2022/01/29 03:50:20;;;;;;;35.25;12.95;;;7.90;99.90;;;;;;6248849;22;20042;-83
2022/01/29 03:52:48;;;;;;;43.95;12.80;;;7.40;99.90;;;;;;6223290;22;20018;-84
2022/01/29 03:55:20;;;;;;;31.52;14.40;;;8.90;99.90;;;;;;6223632;22;20324;-84
2022/01/29 03:57:48;;;;;;;37.50;13.63;;;8.00;99.90;;;;;;6226090;22;20019;-85
2022/01/29 04:00:24;;;;;;;32.28;12.88;;;7.90;99.90;;;;;;6224354;22;20066;-84
2022/01/29 04:02:55;;;;;;;29.75;13.32;;;8.20;99.90;;;;;;6223752;22;20019;-84
2022/01/29 04:05:30;;;;;;;38.75;13.50;;;7.80;99.90;;;;;;6222193;22;20150;-83
2022/01/29 04:07:58;;;;;;;34.08;13.52;;;7.90;99.90;;;;;;6220365;22;20023;-84
2022/01/29 04:10:29;;;;;;;33.47;13.27;;;7.90;99.90;;;;;;6219326;22;20048;-85
2022/01/29 04:13:01;;;;;;;40.58;14.48;;;7.90;99.90;;;;;;6222142;22;20069;-85
2022/01/29 04:15:32;;;;;;;39.47;15.13;;;7.90;99.90;;;;;;6247644;22;20369;-84
2022/01/29 04:18:03;;;;;;;29.33;13.30;;;7.90;99.90;;;;;;6222607;22;20096;-85
2022/01/29 04:20:43;;;;;;;35.53;14.13;;;8.70;99.90;;;;;;6249943;22;20023;-85
2022/01/29 04:23:09;;;;;;;33.97;14.02;;;8.10;99.90;;;;;;6247911;22;21016;-83
2022/01/29 04:25:44;;;;;;;35.25;13.23;;;8.00;99.90;;;;;;6222132;22;20011;-84
2022/01/29 04:28:12;;;;;;;36.03;14.65;;;7.90;99.90;;;;;;6247958;22;20387;-84
2022/01/29 04:30:46;;;;;;;32.95;14.15;;;8.90;99.90;;;;;;6222150;22;20012;-85
2022/01/29 04:35:47;;;;;;;29.88;12.60;;;8.30;99.90;;;;;;6244907;22;20055;-85
2022/01/29 04:38:19;;;;;;;34.85;14.25;;;8.10;99.90;;;;;;6221541;22;20027;-86
2022/01/29 04:40:52;;;;;;;41.72;15.02;;;8.10;99.90;;;;;;6246794;22;20097;-86
2022/01/29 04:43:18;;;;;;;32.45;14.57;;;8.10;99.90;;;;;;6221673;22;20020;-85
2022/01/29 04:46:10;;;;;;;30.40;13.88;;;8.30;99.90;;;;;;6229446;22;20012;-86
2022/01/29 04:48:44;;;;;;;35.42;13.55;;;8.10;99.90;;;;;;6222622;22;20043;-86
2022/01/29 04:51:13;;;;;;;32.90;14.02;;;8.10;99.90;;;;;;6220322;22;20011;-85
2022/01/29 04:53:40;;;;;;;44.58;14.73;;;8.90;99.90;;;;;;6222870;22;20030;-86
2022/01/29 04:56:21;;;;;;;35.40;14.65;;;9.10;99.90;;;;;;6247359;22;20015;-85
2022/01/29 04:58:53;;;;;;;31.13;14.10;;;8.00;99.90;;;;;;6247152;22;20444;-85
2022/01/29 05:01:39;;;;;;;29.98;14.38;;;8.10;99.90;;;;;;6223140;22;20027;-85
2022/01/29 05:04:28;;;;;;;32.30;14.10;;;8.00;99.90;;;;;;6221341;22;20015;-86
2022/01/29 05:07:18;;;;;;;32.85;14.38;;;8.10;99.90;;;;;;6220756;22;20775;-85
2022/01/29 05:10:03;;;;;;;37.28;14.07;;;8.20;99.90;;;;;;6246124;22;20073;-84
2022/01/29 05:12:50;;;;;;;34.80;14.93;;;8.50;99.90;;;;;;6221144;22;20043;-84
2022/01/29 05:30:16;;;;;;;35.25;13.48;;;8.30;99.90;;;;;;6067172;23;20045;-84
2022/01/29 05:32:43;;;;;;;32.97;13.88;;;7.70;99.90;;;;;;6041049;23;20428;-85
2022/01/29 05:35:27;;;;;;;;;;;;;;;;;;;;;
2022/01/29 05:38:19;;;;;;;26.92;12.52;;;8.00;99.90;;;;;;6067819;23;20023;-84
2022/01/29 05:41:04;;;;;;;29.75;12.52;;;8.40;99.90;;;;;;6067624;23;20023;-83
2022/01/29 05:43:33;;;;;;;30.52;13.32;;;7.80;99.90;;;;;;6067126;23;20025;-84
2022/01/29 05:50:49;;;;;;;31.20;14.00;;;8.30;99.90;;;;;;6151201;23;20044;-86
2022/01/29 05:53:45;;;;;;;26.85;13.15;;;8.40;99.90;;;;;;6152248;23;20024;-85
2022/01/29 05:56:35;;;;;;;27.80;13.40;;;8.30;99.90;;;;;;6104301;23;20029;-85
2022/01/29 05:59:25;;;;;;;28.10;12.75;;;8.40;99.90;;;;;;6104973;23;20040;-85
2022/01/29 06:01:56;;;;;;;29.00;14.35;;;8.50;99.90;;;;;;6102417;23;20017;-84
2022/01/29 06:04:22;;;;;;;26.33;12.15;;;9.30;99.90;;;;;;6238119;22;20478;-84
2022/01/29 06:06:48;;;;;;;28.02;14.10;;;9.30;99.90;;;;;;6247011;22;20020;-84
2022/01/29 06:09:13;;;;;;;26.67;12.27;;;8.50;99.90;;;;;;6223744;22;20145;-85
2022/01/29 06:11:39;;;;;;;32.85;14.88;;;8.50;99.90;;;;;;6275702;22;20499;-83
2022/01/29 06:14:05;;;;;;;30.23;14.02;;;9.10;99.90;;;;;;6247864;22;20110;-85
2022/01/29 06:17:27;;;;;;;33.55;14.50;;;8.40;99.90;;;;;;6221978;22;20388;-86
2022/01/29 06:20:13;;;;;;;26.38;13.65;;;7.70;99.90;;;;;;6273633;22;20030;-87
2022/01/29 06:22:41;;;;;;;30.08;13.40;;;9.40;99.90;;;;;;6220965;22;20125;-87
2022/01/29 06:29:01;;;;;;;28.73;14.10;;;8.30;99.90;;;;;;6125557;23;20080;-86
2022/01/29 06:35:44;;;;;;;29.55;12.50;;;8.30;99.90;;;;;;6150105;23;20622;-86
2022/01/29 06:38:27;;;;;;;26.38;13.88;;;8.60;99.90;;;;;;6102529;23;20489;-87
2022/01/29 06:41:20;;;;;;;28.48;13.07;;;9.20;99.90;;;;;;6100773;23;20028;-84
2022/01/29 06:43:54;;;;;;;24.15;12.70;;;8.60;99.90;;;;;;6094829;23;20014;-85
2022/01/29 06:46:20;;;;;;;24.75;12.10;;;8.60;99.90;;;;;;6068859;23;20054;-84
2022/01/29 06:48:46;;;;;;;27.88;13.57;;;9.40;99.90;;;;;;6121874;23;20009;-84
2022/01/29 06:51:11;;;;;;;27.23;12.15;;;9.30;99.90;;;;;;6120179;23;20023;-83
2022/01/29 06:53:37;;;;;;;27.15;13.85;;;8.60;99.90;;;;;;6120723;23;20041;-83
2022/01/29 06:56:03;;;;;;;28.08;12.73;;;8.60;99.90;;;;;;6121148;23;20018;-84
2022/01/29 06:58:29;;;;;;;29.02;14.15;;;8.50;99.90;;;;;;6072810;23;20382;-82
2022/01/29 07:00:54;;;;;;;31.75;12.52;;;8.50;99.90;;;;;;6072315;23;20050;-81
2022/01/29 07:03:20;;;;;;;25.92;13.15;;;9.50;99.90;;;;;;6097347;23;20184;-82
2022/01/29 07:05:48;;;;;;;25.85;12.25;;;8.50;99.90;;;;;;6125771;23;20378;-82
2022/01/29 07:08:14;;;;;;;31.27;12.40;;;8.90;99.90;;;;;;6102438;23;20014;-85
2022/01/29 07:10:40;;;;;;;27.88;14.00;;;8.50;99.90;;;;;;6126059;23;20020;-85
2022/01/29 07:13:06;;;;;;;29.80;13.07;;;8.50;99.90;;;;;;6186669;23;20092;-84
2022/01/29 07:19:21;;;;;;;23.80;11.48;;;8.50;99.90;;;;;;6277056;22;20323;-84
2022/01/29 07:25:27;;;;;;;25.13;13.23;;;8.50;99.90;;;;;;6275197;22;20020;-82
2022/01/29 07:27:53;;;;;;;22.48;12.65;;;9.50;99.90;;;;;;6274788;22;20510;-82
2022/01/29 07:30:18;;;;;;;23.60;11.55;;;8.60;99.90;;;;;;6247590;22;20471;-82
2022/01/29 07:33:15;;;;;;;22.65;11.43;;;9.00;99.90;;;;;;6247438;22;20012;-84
2022/01/29 07:36:08;;;;;;;24.98;11.95;;;8.60;99.90;;;;;;6245311;22;20103;-84
2022/01/29 07:38:48;;;;;;;26.90;12.02;;;8.60;99.90;;;;;;6221589;22;20051;-84
2022/01/29 07:41:16;;;;;;;23.33;11.90;;;8.90;99.90;;;;;;6247199;22;20020;-84
2022/01/29 07:43:44;;;;;;;32.50;12.32;;;9.30;99.90;;;;;;6247142;22;20015;-84
2022/01/29 07:46:41;;;;;;;30.98;12.23;;;9.50;99.90;;;;;;6220008;22;20101;-83
2022/01/29 07:53:31;;;;;;;18.23;11.55;;;8.50;99.90;;;;;;6149557;23;20025;-84
2022/01/29 07:55:57;;;;;;;23.25;11.70;;;8.50;99.90;;;;;;6124297;23;20021;-85
2022/01/29 07:58:22;;;;;;;23.38;11.35;;;8.40;99.90;;;;;;6125335;23;20020;-84
2022/01/29 08:00:48;;;;;;;26.33;11.15;;;8.40;99.90;;;;;;6100548;23;20072;-84
2022/01/29 08:03:18;;;;;;;19.58;10.45;;;9.50;99.90;;;;;;6124636;23;20017;-82
2022/01/29 08:05:44;;;;;;;19.70;9.85;;;8.10;99.90;;;;;;6123883;23;20021;-84
2022/01/29 08:08:10;;;;;;;27.25;11.15;;;8.50;99.90;;;;;;6125674;23;20322;-85
2022/01/29 08:10:42;;;;;;;22.75;9.98;;;8.80;99.90;;;;;;6124951;23;20017;-82
2022/01/29 08:13:08;;;;;;;24.02;9.80;;;8.60;99.90;;;;;;6125324;23;20080;-84
2022/01/29 08:15:33;;;;;;;22.77;9.65;;;9.60;99.90;;;;;;6149182;23;20722;-81
2022/01/29 08:18:02;;;;;;;15.10;7.75;;;9.40;99.90;;;;;;6148440;23;20022;-83
2022/01/29 08:20:28;;;;;;;21.63;9.27;;;8.70;99.90;;;;;;6122467;23;20390;-82
2022/01/29 08:22:54;;;;;;;18.65;8.80;;;8.80;99.90;;;;;;6098296;23;20060;-82
2022/01/29 08:25:19;;;;;;;20.02;8.98;;;8.70;99.90;;;;;;6149293;23;20448;-81
2022/01/29 08:27:51;;;;;;;22.00;8.48;;;8.80;99.90;;;;;;6149708;23;20056;-80
2022/01/29 08:30:17;;;;;;;19.98;8.43;;;8.80;99.90;;;;;;6192894;23;20028;-82
2022/01/29 08:32:43;;;;;;;20.52;8.27;;;8.90;99.90;;;;;;6215615;23;20408;-81
2022/01/29 08:35:25;;;;;;;14.20;7.47;;;9.00;99.90;;;;;;6243897;23;20088;-82
2022/01/29 08:37:50;;;;;;;18.35;7.85;;;8.90;99.90;;;;;;6190744;23;20552;-81
2022/01/29 08:40:16;;;;;;;16.00;7.72;;;9.70;99.90;;;;;;6216248;23;20044;-82
2022/01/29 08:42:42;;;;;;;13.65;7.05;;;9.00;99.90;;;;;;6189502;23;20435;-81
2022/01/29 08:45:50;;;;;;;22.08;7.38;;;9.80;99.90;;;;;;6190057;23;20213;-83
2022/01/29 08:52:48;;;;;;;18.30;6.22;;;9.00;99.90;;;;;;6178825;22;19915;-83
2022/01/29 08:55:36;;;;;;;14.32;6.20;;;9.10;99.90;;;;;;6043829;23;20336;-81
2022/01/29 08:58:17;;;;;;;20.55;6.57;;;9.40;99.90;;;;;;5893580;24;20114;-80
2022/01/29 09:00:46;;;;;;;12.02;5.40;;;9.20;99.90;;;;;;5850006;24;20021;-81
2022/01/29 09:03:16;;;;;;;14.70;5.35;;;9.20;99.90;;;;;;5872171;24;20028;-80
2022/01/29 09:05:46;;;;;;;13.43;5.28;;;9.50;99.90;;;;;;5893981;24;20017;-80
2022/01/29 09:08:13;;;;;;;14.45;5.50;;;9.70;99.90;;;;;;5870997;24;20100;-80
2022/01/29 09:10:39;;;;;;;15.10;5.45;;;9.30;99.90;;;;;;5893904;24;20117;-80
2022/01/29 09:13:05;;;;;;;9.35;4.20;;;9.50;99.90;;;;;;5848348;24;20108;-82
2022/01/29 09:15:31;;;;;;;11.85;4.32;;;9.50;99.90;;;;;;5848943;24;20098;-83
2022/01/29 09:17:57;;;;;;;18.73;4.95;;;9.40;99.90;;;;;;5849371;24;20025;-81
2022/01/29 09:20:27;;;;;;;10.18;4.40;;;10.20;99.90;;;;;;5894751;24;20030;-88
2022/01/29 09:22:52;;;;;;;15.60;4.90;;;9.30;99.90;;;;;;5871332;24;20101;-82
2022/01/29 09:25:18;;;;;;;13.15;4.78;;;9.70;99.90;;;;;;5909732;23;20062;-81
2022/01/29 09:27:44;;;;;;;10.85;4.30;;;9.40;99.90;;;;;;6020541;23;20066;-87
2022/01/29 09:30:12;;;;;;;17.42;6.10;;;9.80;99.90;;;;;;6096802;23;20014;-86
2022/01/29 09:32:38;;;;;;;14.18;4.38;;;9.50;99.90;;;;;;6123465;23;20569;-77
2022/01/29 09:35:05;;;;;;;12.43;5.03;;;9.50;99.90;;;;;;6162400;23;20055;-84
2022/01/29 09:37:31;;;;;;;13.63;4.20;;;9.60;99.90;;;;;;6216524;23;20016;-86
2022/01/29 09:39:57;;;;;;;12.73;3.80;;;9.50;99.90;;;;;;6218117;23;20039;-81
2022/01/29 09:42:24;;;;;;;11.75;3.83;;;9.70;99.90;;;;;;6218194;23;20087;-83
2022/01/29 09:44:52;;;;;;;12.95;4.25;;;9.90;99.90;;;;;;6193176;23;20017;-84
2022/01/29 09:47:37;;;;;;;12.52;3.80;;;9.70;99.90;;;;;;6191111;23;20051;-87
2022/01/29 09:50:06;;;;;;;11.00;3.70;;;9.60;99.90;;;;;;6217653;23;20016;-80
2022/01/29 09:52:32;;;;;;;16.70;3.47;;;9.60;99.90;;;;;;6215872;23;20023;-84
2022/01/29 09:54:58;;;;;;;14.10;3.58;;;9.70;99.90;;;;;;6218360;23;20016;-84
2022/01/29 09:57:25;;;;;;;12.15;3.20;;;9.80;99.90;;;;;;6194319;23;20137;-89
2022/01/29 09:59:53;;;;;;;13.70;3.70;;;10.20;99.90;;;;;;6218597;23;20016;-83
2022/01/29 10:02:19;;;;;;;13.98;3.10;;;9.70;99.90;;;;;;6215281;23;20176;-81
2022/01/29 10:04:56;;;;;;;15.75;3.30;;;9.90;99.90;;;;;;6218024;23;20043;-81
2022/01/29 10:07:28;;;;;;;9.98;3.15;;;9.70;99.90;;;;;;6216658;23;20072;-80
2022/01/29 10:10:21;;;;;;;9.07;2.97;;;9.80;99.90;;;;;;6192212;23;20405;-80
2022/01/29 10:13:25;;;;;;;8.18;3.08;;;9.80;99.90;;;;;;6126728;23;20017;-80
2022/01/29 10:16:20;;;;;;;11.68;2.67;;;9.70;99.90;;;;;;6067301;23;20172;-80
2022/01/29 10:19:09;;;;;;;13.02;2.80;;;9.90;99.90;;;;;;6044223;23;20015;-81
2022/01/29 10:21:41;;;;;;;14.00;2.50;;;9.80;99.90;;;;;;6081545;23;20038;-80
2022/01/29 10:24:21;;;;;;;11.63;2.85;;;9.80;99.90;;;;;;6067965;23;20081;-80
2022/01/29 10:26:49;;;;;;;9.88;2.67;;;9.90;99.90;;;;;;6068121;23;20098;-78
2022/01/29 10:29:20;;;;;;;6.30;1.92;;;9.90;99.90;;;;;;6045475;23;20098;-80
2022/01/29 10:32:24;;;;;;;7.55;1.98;;;10.30;99.90;;;;;;6044185;23;20045;-81
2022/01/29 10:35:01;;;;;;;12.10;2.33;;;9.90;99.90;;;;;;6046211;23;20130;-83
2022/01/29 10:37:33;;;;;;;9.90;2.58;;;9.90;99.90;;;;;;6045419;23;20490;-83
2022/01/29 10:40:12;;;;;;;13.50;2.70;;;10.50;99.90;;;;;;6068032;23;20025;-82
2022/01/29 10:42:38;;;;;;;9.90;2.00;;;10.00;99.90;;;;;;6045274;23;20017;-83
2022/01/29 10:45:07;;;;;;;20.23;2.42;;;10.00;99.90;;;;;;6127264;23;20080;-85
2022/01/29 10:47:52;;;;;;;7.82;2.15;;;10.10;99.90;;;;;;6126987;23;20044;-82
2022/01/29 10:50:19;;;;;;;11.70;2.20;;;9.90;99.90;;;;;;6101610;23;20014;-84
2022/01/29 10:52:44;;;;;;;8.40;1.95;;;10.00;99.90;;;;;;6193179;23;20324;-84
2022/01/29 10:55:10;;;;;;;12.65;2.25;;;10.10;99.90;;;;;;6217535;23;20012;-86
2022/01/29 10:57:47;;;;;;;13.40;2.42;;;10.20;99.90;;;;;;6191515;23;20429;-84
2022/01/29 11:00:21;;;;;;;8.60;2.30;;;10.10;99.90;;;;;;6191829;23;20044;-85
2022/01/29 11:02:48;;;;;;;8.50;2.08;;;10.10;99.90;;;;;;6216263;23;20027;-80
2022/01/29 11:05:15;;;;;;;11.50;2.28;;;10.60;99.90;;;;;;6168548;23;20490;-86
2022/01/29 11:07:51;;;;;;;10.90;1.98;;;10.00;99.90;;;;;;6217830;23;20008;-81
2022/01/29 11:10:19;;;;;;;9.77;2.05;;;10.10;99.90;;;;;;6218705;23;20011;-83
2022/01/29 11:12:46;;;;;;;9.98;2.63;;;10.20;99.90;;;;;;6217760;23;20110;-81
2022/01/29 11:15:15;;;;;;;10.40;2.47;;;10.20;99.90;;;;;;6192381;23;20012;-82
2022/01/29 11:17:43;;;;;;;13.65;2.10;;;10.20;99.90;;;;;;6243306;23;20019;-80
2022/01/29 11:20:10;;;;;;;11.60;2.50;;;10.20;99.90;;;;;;6192407;23;20412;-81
2022/01/29 11:22:40;;;;;;;8.43;2.20;;;10.30;99.90;;;;;;6192394;23;20143;-80
2022/01/29 11:25:10;;;;;;;9.70;2.00;;;10.40;99.90;;;;;;6191916;23;20009;-84
2022/01/29 11:27:41;;;;;;;6.07;2.00;;;10.40;99.90;;;;;;6216245;23;20336;-79
2022/01/29 11:30:09;;;;;;;13.15;2.40;;;10.50;99.90;;;;;;6191584;23;20087;-80
2022/01/29 11:32:42;;;;;;;10.27;2.35;;;10.30;99.90;;;;;;6215257;23;20008;-80
2022/01/29 11:35:09;;;;;;;10.73;2.45;;;10.40;99.90;;;;;;6192726;23;20382;-80
2022/01/29 11:37:42;;;;;;;10.73;1.92;;;10.30;99.90;;;;;;6215331;23;20091;-81
2022/01/29 11:40:33;;;;;;;9.82;1.75;;;10.30;99.90;;;;;;6190231;23;20186;-83
2022/01/29 11:43:01;;;;;;;8.95;1.60;;;10.30;99.90;;;;;;6215204;23;20020;-81
2022/01/29 11:45:44;;;;;;;10.85;1.80;;;10.30;99.90;;;;;;6189998;23;20017;-78
2022/01/29 11:48:26;;;;;;;9.63;1.77;;;10.30;99.90;;;;;;6216375;23;20034;-83
2022/01/29 11:51:01;;;;;;;16.02;2.30;;;10.60;99.90;;;;;;6188631;23;20016;-85
2022/01/29 11:53:49;;;;;;;13.55;2.55;;;10.50;99.90;;;;;;6190370;23;20019;-80
2022/01/29 11:56:30;;;;;;;11.55;2.35;;;10.60;99.90;;;;;;6214537;23;20043;-82
2022/01/29 11:59:30;;;;;;;10.00;2.15;;;10.60;99.90;;;;;;6190359;23;20023;-86
2022/01/29 12:02:01;;;;;;;10.25;1.80;;;10.60;99.90;;;;;;6190820;23;20322;-82
2022/01/29 12:04:48;;;;;;;6.05;1.33;;;10.60;99.90;;;;;;6192350;23;20091;-84
2022/01/29 12:07:25;;;;;;;13.77;2.10;;;10.60;99.90;;;;;;6214937;23;20074;-83
2022/01/29 12:10:06;;;;;;;11.43;2.20;;;10.60;99.90;;;;;;6195467;23;20012;-83
2022/01/29 12:12:34;;;;;;;6.00;1.55;;;10.60;99.90;;;;;;6216266;23;20091;-80
2022/01/29 12:15:19;;;;;;;13.18;2.22;;;10.60;99.90;;;;;;6192544;23;20016;-79
2022/01/29 12:18:05;;;;;;;12.13;1.77;;;11.50;99.90;;;;;;6215333;23;20012;-78
2022/01/29 12:20:44;;;;;;;9.57;1.70;;;10.80;99.90;;;;;;6189224;23;20173;-79
2022/01/29 12:23:51;;;;;;;12.80;1.60;;;10.90;99.90;;;;;;6272816;22;20039;-80
2022/01/29 12:26:21;;;;;;;8.07;1.58;;;11.00;99.90;;;;;;6246334;22;20463;-81
2022/01/29 12:28:59;;;;;;;11.82;1.80;;;10.90;99.90;;;;;;6247054;22;20008;-80
2022/01/29 12:31:33;;;;;;;8.63;1.40;;;11.00;99.90;;;;;;6246106;22;20058;-79
2022/01/29 12:34:14;;;;;;;9.60;1.73;;;11.00;99.90;;;;;;6223908;22;20511;-78
2022/01/29 12:36:41;;;;;;;10.00;1.77;;;12.10;99.90;;;;;;6245517;22;20112;-78
2022/01/29 12:39:08;;;;;;;11.18;2.13;;;12.10;99.90;;;;;;6246909;22;20015;-78
2022/01/29 12:41:38;;;;;;;10.85;1.48;;;11.70;99.90;;;;;;6221254;22;20098;-79
2022/01/29 12:44:08;;;;;;;9.10;1.85;;;12.20;99.90;;;;;;6245608;22;20015;-78
2022/01/29 12:46:41;;;;;;;8.30;1.63;;;11.00;99.90;;;;;;6244322;22;20090;-79
2022/01/29 12:49:15;;;;;;;8.13;2.03;;;11.00;99.90;;;;;;6221162;22;20488;-79
2022/01/29 12:52:22;;;;;;;9.90;2.13;;;11.00;99.90;;;;;;6244547;22;20008;-80
2022/01/29 12:55:14;;;;;;;8.90;1.90;;;11.20;99.90;;;;;;6243832;22;20081;-78
2022/01/29 13:05:20;;;;;;;;;;;;;;;;;;;;;
2022/01/29 13:07:49;;;;;;;12.68;2.05;;;12.00;99.90;;;;;;6244392;22;20095;-79
2022/01/29 13:10:18;;;;;;;10.88;2.33;;;11.30;99.90;;;;;;6220580;22;20404;-79
2022/01/29 13:12:46;;;;;;;13.32;2.20;;;11.20;99.90;;;;;;6220542;22;20026;-80
2022/01/29 13:15:13;;;;;;;9.60;1.95;;;11.80;99.90;;;;;;6220686;22;20023;-80
2022/01/29 13:17:42;;;;;;;9.60;1.80;;;11.20;99.90;;;;;;6246241;22;20015;-81
2022/01/29 13:20:13;;;;;;;9.23;1.45;;;11.60;99.90;;;;;;6222164;22;20103;-82
2022/01/29 13:25:39;;;;;;;14.13;2.08;;;11.30;99.90;;;;;;6105855;23;20028;-81
2022/01/29 13:28:16;;;;;;;8.20;1.60;;;11.30;99.90;;;;;;6100158;23;20021;-79
2022/01/29 13:30:44;;;;;;;7.22;1.42;;;11.30;99.90;;;;;;6099595;23;20084;-80
2022/01/29 13:33:12;;;;;;;10.85;2.00;;;11.60;99.90;;;;;;6147909;23;20021;-79
2022/01/29 13:36:09;;;;;;;13.05;2.10;;;11.40;99.90;;;;;;6098174;23;20017;-82
2022/01/29 13:39:18;;;;;;;9.52;2.13;;;11.50;99.90;;;;;;5976240;24;20020;-78
2022/01/29 13:42:13;;;;;;;;;;;11.50;99.90;;;;;;5820582;24;20056;-79
2022/01/29 13:45:34;;;;;;;13.57;1.85;;;11.50;99.90;;;;;;5811010;24;20302;-78
2022/01/29 13:49:04;;;;;;;9.20;1.90;;;11.50;99.90;;;;;;5817558;24;20106;-79
2022/01/29 13:52:16;;;;;;;10.05;1.55;;;11.50;99.90;;;;;;5809736;24;20335;-79
2022/01/29 13:54:55;;;;;;;7.35;1.45;;;11.50;99.90;;;;;;5787867;24;20007;-78
2022/01/29 13:57:37;;;;;;;5.88;1.35;;;11.50;99.90;;;;;;5765415;24;20015;-79
2022/01/29 14:00:11;;;;;;;10.23;1.67;;;11.70;99.90;;;;;;5787577;24;20011;-80
2022/01/29 14:02:56;;;;;;;9.15;1.80;;;11.50;99.90;;;;;;5782412;24;20093;-80
2022/01/29 14:05:39;;;;;;;8.70;1.88;;;10.80;99.90;;;;;;5817088;24;20447;-79
2022/01/29 14:08:23;;;;;;;8.95;1.60;;;12.30;99.90;;;;;;5795428;24;20015;-76
2022/01/29 14:10:57;;;;;;;10.52;1.92;;;11.50;99.90;;;;;;5840089;24;20007;-81
2022/01/29 14:13:28;;;;;;;7.47;1.52;;;11.50;99.90;;;;;;5839229;24;20371;-79
2022/01/29 14:15:54;;;;;;;13.40;1.67;;;11.60;99.90;;;;;;5847087;24;20010;-82
2022/01/29 14:18:32;;;;;;;11.27;1.58;;;11.60;99.90;;;;;;5856087;24;20040;-84
2022/01/29 14:21:12;;;;;;;10.68;1.63;;;11.60;99.90;;;;;;5900643;24;20021;-86
2022/01/29 14:23:43;;;;;;;5.47;1.50;;;11.50;99.90;;;;;;5899639;24;20036;-84
2022/01/29 14:26:12;;;;;;;9.20;1.58;;;11.70;99.90;;;;;;5903119;23;20021;-84
2022/01/29 14:28:38;;;;;;;11.52;1.85;;;11.80;99.90;;;;;;6014324;23;20648;-84
2022/01/29 14:31:13;;;;;;;14.73;1.80;;;11.80;99.90;;;;;;6055313;23;20040;-84
2022/01/29 14:33:39;;;;;;;;;;;12.60;99.90;;;;;;6191861;23;20412;-82
2022/01/29 14:36:05;;;;;;;6.90;1.60;;;11.80;99.90;;;;;;6189367;23;19912;-83
2022/01/29 14:38:30;;;;;;;14.48;2.28;;;11.90;99.90;;;;;;6189924;23;20082;-84
2022/01/29 14:41:03;;;;;;;18.02;2.95;;;11.80;99.90;;;;;;6191182;23;20134;-82
2022/01/29 14:43:59;;;;;;;14.25;2.55;;;11.60;99.90;;;;;;6214730;23;20052;-81
2022/01/29 14:46:32;;;;;;;14.98;2.60;;;11.60;99.90;;;;;;6216013;23;20090;-81
2022/01/29 14:49:02;;;;;;;13.43;2.55;;;11.70;99.90;;;;;;6192825;23;20020;-81
2022/01/29 14:51:39;;;;;;;10.55;2.20;;;11.70;99.90;;;;;;6216395;23;20012;-82
2022/01/29 14:54:40;;;;;;;14.40;2.28;;;11.60;99.90;;;;;;6189893;23;20163;-79
2022/01/29 14:58:38;;;;;;;13.43;2.33;;;11.60;99.90;;;;;;6211786;23;20020;-80
2022/01/29 15:01:04;;;;;;;13.82;2.10;;;11.40;99.90;;;;;;6238178;23;20023;-82
2022/01/29 15:19:30;;;;;;;;;;;;;;;;;;;;;
2022/01/29 15:26:24;;;;;;;23.05;3.28;;;11.50;99.90;;;;;;5947947;23;20109;-83
2022/01/29 15:29:40;;;;;;;21.42;3.67;;;11.30;99.90;;;;;;5865690;24;20567;-83
2022/01/29 15:32:26;;;;;;;17.20;2.70;;;11.30;99.90;;;;;;5816316;24;20695;-82
2022/01/29 15:35:47;;;;;;;23.65;3.60;;;11.30;99.90;;;;;;5789495;24;20234;-80
2022/01/29 15:49:31;;;;;;;25.67;4.32;;;11.60;99.90;;;;;;5428031;22;20383913;-81
2022/01/29 15:52:39;;;;;;;17.08;3.65;;;10.40;99.90;;;;;;6274768;22;20083;-82
2022/01/29 15:59:44;;;;;;;8.85;2.78;;;10.90;99.90;;;;;;6042247;23;20030;-82
2022/01/29 16:03:04;;;;;;;29.00;4.03;;;10.30;99.90;;;;;;6012713;23;20026;-83
2022/01/29 16:05:34;;;;;;;25.08;3.70;;;10.80;99.90;;;;;;5965467;23;20514;-83
2022/01/29 16:08:46;;;;;;;25.88;4.03;;;11.10;99.90;;;;;;5988236;23;20061;-86